createdAt,value
2019-01-11T00:01:48.953Z,9.80
2019-01-11T00:04:18.321Z,10.80
2019-01-11T00:06:47.597Z,9.30
2019-01-11T00:09:17.461Z,9.40
2019-01-11T00:11:46.987Z,9.38
2019-01-11T00:14:16.293Z,10.30
2019-01-11T00:16:45.592Z,9.90
2019-01-11T00:19:14.854Z,10.70
2019-01-11T00:21:44.116Z,10.80
2019-01-11T00:24:13.415Z,10.17
2019-01-11T00:26:42.687Z,8.50
2019-01-11T00:29:11.958Z,9.53
2019-01-11T00:31:41.326Z,9.97
2019-01-11T00:34:10.592Z,10.98
2019-01-11T00:36:39.868Z,9.90
2019-01-11T00:39:09.569Z,9.58
2019-01-11T00:41:38.833Z,9.05
2019-01-11T00:44:08.126Z,10.10
2019-01-11T00:46:37.387Z,10.80
2019-01-11T00:49:06.753Z,10.55
2019-01-11T00:51:36.047Z,10.93
2019-01-11T00:54:05.922Z,10.38
2019-01-11T00:56:35.183Z,10.18
2019-01-11T00:59:04.878Z,10.88
2019-01-11T01:01:34.167Z,9.65
2019-01-11T01:04:03.672Z,10.00
2019-01-11T01:06:32.961Z,10.20
2019-01-11T01:09:02.248Z,10.53
2019-01-11T01:11:31.513Z,11.18
2019-01-11T01:14:00.805Z,12.78
2019-01-11T01:16:30.069Z,11.00
2019-01-11T01:18:59.337Z,10.70
2019-01-11T01:21:28.625Z,10.68
2019-01-11T01:23:57.892Z,9.50
2019-01-11T01:26:27.152Z,10.15
2019-01-11T01:28:56.441Z,11.08
2019-01-11T01:31:25.805Z,9.55
2019-01-11T01:33:55.068Z,11.35
2019-01-11T01:36:24.364Z,9.85
2019-01-11T01:38:53.649Z,9.80
2019-01-11T01:41:22.911Z,10.15
2019-01-11T01:43:52.208Z,10.60
2019-01-11T01:46:21.475Z,10.72
2019-01-11T01:48:50.724Z,11.15
2019-01-11T01:51:20.012Z,10.58
2019-01-11T01:53:49.285Z,11.78
2019-01-11T01:56:18.559Z,14.00
2019-01-11T01:58:47.845Z,13.18
2019-01-11T02:01:17.109Z,13.32
2019-01-11T02:03:46.469Z,12.85
2019-01-11T02:06:15.732Z,14.47
2019-01-11T02:08:45.009Z,14.85
2019-01-11T02:11:14.295Z,13.83
2019-01-11T02:13:43.565Z,14.43
2019-01-11T02:16:12.833Z,16.00
2019-01-11T02:18:42.124Z,14.33
2019-01-11T02:21:11.388Z,14.95
2019-01-11T02:23:40.685Z,14.10
2019-01-11T02:26:10.029Z,16.20
2019-01-11T02:28:39.304Z,18.00
2019-01-11T02:31:08.602Z,16.15
2019-01-11T02:33:37.873Z,18.92
2019-01-11T02:36:07.131Z,19.15
2019-01-11T02:38:36.453Z,16.80
2019-01-11T02:41:05.710Z,20.70
2019-01-11T02:43:34.979Z,18.10
2019-01-11T02:46:04.343Z,19.17
2019-01-11T02:48:33.587Z,18.10
2019-01-11T02:51:02.854Z,17.40
2019-01-11T02:53:32.128Z,18.42
2019-01-11T02:56:01.396Z,21.95
2019-01-11T02:58:30.729Z,21.15
2019-01-11T03:01:00.017Z,21.60
2019-01-11T03:03:29.268Z,21.82
2019-01-11T03:05:58.593Z,20.65
2019-01-11T03:08:27.873Z,21.17
2019-01-11T03:10:57.120Z,20.97
2019-01-11T03:13:26.413Z,21.15
2019-01-11T03:15:55.696Z,21.85
2019-01-11T03:18:24.996Z,23.02
2019-01-11T03:20:54.358Z,23.73
2019-01-11T03:23:23.661Z,23.65
2019-01-11T03:25:52.944Z,23.10
2019-01-11T03:28:22.229Z,24.15
2019-01-11T03:30:51.508Z,23.90
2019-01-11T03:33:20.765Z,26.25
2019-01-11T03:35:50.129Z,23.20
2019-01-11T03:38:19.484Z,23.67
2019-01-11T03:40:48.778Z,22.93
2019-01-11T03:43:18.069Z,24.70
2019-01-11T03:45:47.333Z,22.75
2019-01-11T03:48:16.671Z,24.85
2019-01-11T03:50:45.961Z,24.55
2019-01-11T03:53:15.235Z,24.27
2019-01-11T03:55:44.679Z,23.83
2019-01-11T03:58:13.976Z,25.43
2019-01-11T04:00:43.230Z,27.37
2019-01-11T04:03:12.524Z,25.70
2019-01-11T04:05:41.782Z,23.60
2019-01-11T04:08:11.035Z,24.82
2019-01-11T04:10:40.313Z,24.30
2019-01-11T04:13:09.586Z,23.73
2019-01-11T04:15:38.857Z,25.92
2019-01-11T04:18:28.875Z,28.50
2019-01-11T04:20:58.135Z,26.55
2019-01-11T04:23:27.420Z,28.75
2019-01-11T04:25:56.735Z,28.40
2019-01-11T04:28:25.997Z,28.57
2019-01-11T04:30:55.265Z,27.67
2019-01-11T04:33:24.546Z,30.23
2019-01-11T04:35:53.817Z,29.75
2019-01-11T04:38:23.083Z,33.10
2019-01-11T04:40:52.393Z,32.13
2019-01-11T04:43:21.663Z,31.68
2019-01-11T04:45:50.921Z,31.45
2019-01-11T04:48:20.217Z,32.75
2019-01-11T04:50:49.508Z,31.30
2019-01-11T04:53:18.832Z,30.00
2019-01-11T04:55:48.135Z,30.68
2019-01-11T04:58:17.489Z,30.35
2019-01-11T05:00:46.735Z,32.53
2019-01-11T05:03:16.109Z,31.55
2019-01-11T05:05:47.870Z,32.45
2019-01-11T05:08:17.122Z,30.80
2019-01-11T05:10:46.446Z,30.35
2019-01-11T05:13:27.764Z,30.52
2019-01-11T05:15:57.048Z,27.90
2019-01-11T05:18:26.325Z,30.85
2019-01-11T05:20:55.585Z,30.57
2019-01-11T05:23:24.869Z,29.20
2019-01-11T05:25:54.143Z,29.70
2019-01-11T05:28:23.401Z,31.35
2019-01-11T05:30:52.748Z,28.98
2019-01-11T05:33:22.004Z,29.25
2019-01-11T05:35:51.277Z,29.85
2019-01-11T05:38:20.652Z,29.70
2019-01-11T05:40:49.928Z,29.82
2019-01-11T05:43:20.467Z,31.20
2019-01-11T05:45:50.428Z,31.00
2019-01-11T05:48:19.707Z,29.55
2019-01-11T05:50:48.975Z,29.98
2019-01-11T05:53:18.334Z,29.50
2019-01-11T05:55:49.169Z,29.80
2019-01-11T05:58:43.536Z,29.63
2019-01-11T06:01:14.005Z,29.98
2019-01-11T06:03:43.274Z,28.45
2019-01-11T06:06:12.575Z,30.65
2019-01-11T06:08:41.953Z,28.42
2019-01-11T06:11:11.217Z,29.90
2019-01-11T06:13:40.532Z,29.15
2019-01-11T06:16:09.797Z,28.23
2019-01-11T06:18:39.073Z,30.52
2019-01-11T06:21:08.393Z,27.52
2019-01-11T06:23:37.682Z,28.75
2019-01-11T06:26:07.023Z,27.60
2019-01-11T06:28:36.381Z,26.35
2019-01-11T06:31:05.641Z,28.02
2019-01-11T06:33:34.995Z,28.10
2019-01-11T06:36:04.389Z,27.35
2019-01-11T06:38:33.659Z,29.87
2019-01-11T06:41:02.956Z,28.47
2019-01-11T06:43:32.264Z,29.63
2019-01-11T06:46:01.528Z,30.02
2019-01-11T06:48:41.780Z,29.82
2019-01-11T06:51:11.177Z,27.10
2019-01-11T06:53:40.488Z,27.95
2019-01-11T06:56:09.864Z,28.65
2019-01-11T06:58:39.234Z,27.55
2019-01-11T07:01:08.516Z,27.30
2019-01-11T07:03:37.811Z,24.75
2019-01-11T07:06:07.142Z,28.35
2019-01-11T07:08:36.413Z,26.25
2019-01-11T07:11:05.804Z,27.30
2019-01-11T07:13:35.100Z,26.30
2019-01-11T07:16:04.448Z,26.10
2019-01-11T07:18:33.749Z,28.95
2019-01-11T07:21:03.034Z,29.23
2019-01-11T07:23:32.320Z,25.90
2019-01-11T07:26:01.607Z,24.92
2019-01-11T07:28:31.290Z,26.25
2019-01-11T07:31:07.593Z,25.50
2019-01-11T07:33:37.060Z,26.20
2019-01-11T07:36:25.698Z,26.87
2019-01-11T07:38:54.963Z,25.37
2019-01-11T07:41:24.318Z,22.97
2019-01-11T07:43:53.619Z,24.53
2019-01-11T07:46:22.929Z,23.93
2019-01-11T07:48:52.220Z,23.47
2019-01-11T07:51:21.793Z,25.57
2019-01-11T07:53:51.252Z,26.87
2019-01-11T07:56:20.551Z,25.10
2019-01-11T07:58:49.833Z,24.77
2019-01-11T08:01:19.335Z,23.03
2019-01-11T08:03:48.705Z,23.70
2019-01-11T08:06:18.453Z,24.63
2019-01-11T08:08:47.704Z,22.70
2019-01-11T08:11:17.001Z,21.30
2019-01-11T08:13:46.281Z,21.50
2019-01-11T08:16:15.623Z,21.73
2019-01-11T08:18:44.964Z,23.17
2019-01-11T08:21:14.250Z,24.50
2019-01-11T08:23:43.895Z,23.00
2019-01-11T08:26:13.218Z,22.70
2019-01-11T08:28:42.529Z,22.83
2019-01-11T08:31:11.941Z,22.40
2019-01-11T08:33:41.263Z,23.47
2019-01-11T08:36:10.550Z,22.70
2019-01-11T08:38:39.811Z,23.60
2019-01-11T08:41:09.072Z,21.70
2019-01-11T08:43:38.410Z,22.60
2019-01-11T08:46:07.928Z,22.50
2019-01-11T08:48:37.199Z,23.30
2019-01-11T08:51:06.655Z,19.50
2019-01-11T08:53:35.933Z,20.10
2019-01-11T08:56:08.450Z,19.07
2019-01-11T08:58:36.909Z,20.13
2019-01-11T09:01:06.275Z,20.00
2019-01-11T09:03:35.564Z,19.87
2019-01-11T09:06:05.200Z,19.30
2019-01-11T09:08:34.501Z,17.93
2019-01-11T09:11:03.797Z,18.93
2019-01-11T09:13:33.129Z,17.20
2019-01-11T09:16:02.403Z,18.10
2019-01-11T09:18:38.884Z,19.47
2019-01-11T09:21:09.576Z,17.47
2019-01-11T09:23:39.156Z,19.57
2019-01-11T09:26:08.419Z,20.00
2019-01-11T09:28:37.687Z,18.33
2019-01-11T09:31:07.066Z,19.27
2019-01-11T09:33:36.340Z,18.30
2019-01-11T09:36:05.711Z,18.37
2019-01-11T09:38:35.086Z,18.57
2019-01-11T09:41:04.388Z,17.50
2019-01-11T09:43:33.670Z,15.57
2019-01-11T09:46:02.985Z,17.43
2019-01-11T09:48:32.314Z,14.50
2019-01-11T09:51:01.656Z,14.57
2019-01-11T09:53:30.916Z,15.00
2019-01-11T09:56:00.226Z,13.10
2019-01-11T09:58:29.513Z,14.53
2019-01-11T10:00:59.227Z,14.90
2019-01-11T10:03:28.734Z,13.57
2019-01-11T10:05:57.992Z,14.43
2019-01-11T10:08:27.282Z,14.07
2019-01-11T10:10:56.628Z,14.47
2019-01-11T10:13:25.909Z,15.07
2019-01-11T10:15:55.192Z,13.93
2019-01-11T10:18:24.491Z,15.20
2019-01-11T10:20:53.767Z,15.30
2019-01-11T10:23:23.043Z,14.37
2019-01-11T10:25:52.328Z,13.10
2019-01-11T10:28:21.608Z,15.97
2019-01-11T10:30:50.875Z,15.87
2019-01-11T10:33:20.176Z,15.70
2019-01-11T10:35:49.869Z,15.10
2019-01-11T10:38:19.148Z,16.60
2019-01-11T10:40:48.432Z,17.93
2019-01-11T10:43:17.707Z,16.00
2019-01-11T10:45:47.000Z,15.30
2019-01-11T10:48:16.265Z,17.47
2019-01-11T10:50:45.566Z,16.90
2019-01-11T10:53:15.031Z,14.53
2019-01-11T10:55:44.320Z,15.10
2019-01-11T10:58:13.581Z,18.60
2019-01-11T11:00:42.876Z,16.80
2019-01-11T11:03:12.145Z,17.40
2019-01-11T11:05:41.433Z,17.20
2019-01-11T11:08:11.350Z,18.43
2019-01-11T11:10:40.642Z,17.57
2019-01-11T11:13:09.913Z,17.17
2019-01-11T11:15:42.470Z,16.67
2019-01-11T11:18:11.773Z,17.13
2019-01-11T11:20:41.046Z,18.33
2019-01-11T11:23:10.327Z,18.23
2019-01-11T11:25:39.629Z,17.90
2019-01-11T11:28:08.908Z,18.30
2019-01-11T11:30:38.169Z,19.80
2019-01-11T11:33:07.501Z,19.50
2019-01-11T11:35:36.779Z,19.87
2019-01-11T11:38:06.074Z,20.20
2019-01-11T11:40:35.348Z,16.83
2019-01-11T11:43:04.638Z,21.00
2019-01-11T11:45:34.104Z,17.87
2019-01-11T11:48:03.859Z,18.90
2019-01-11T11:50:33.228Z,20.33
2019-01-11T11:53:02.509Z,18.50
2019-01-11T11:55:31.789Z,21.00
2019-01-11T11:58:02.937Z,15.40
2019-01-11T12:00:32.223Z,21.27
2019-01-11T12:03:01.480Z,20.80
2019-01-11T12:05:30.770Z,22.30
2019-01-11T12:08:00.032Z,19.07
2019-01-11T12:10:29.303Z,20.47
2019-01-11T12:12:58.604Z,20.17
2019-01-11T12:15:27.872Z,21.40
2019-01-11T12:17:57.183Z,19.93
2019-01-11T12:20:30.055Z,23.33
2019-01-11T12:22:59.413Z,19.20
2019-01-11T12:25:28.705Z,21.60
2019-01-11T12:27:58.091Z,22.27
2019-01-11T12:30:27.442Z,21.43
2019-01-11T12:32:56.735Z,22.77
2019-01-11T12:35:25.999Z,18.63
2019-01-11T12:37:55.304Z,20.07
2019-01-11T12:40:24.560Z,21.43
2019-01-11T12:42:53.818Z,21.80
2019-01-11T12:45:23.180Z,22.77
2019-01-11T12:47:52.445Z,24.17
2019-01-11T12:50:24.338Z,22.30
2019-01-11T12:52:53.592Z,21.33
2019-01-11T12:55:22.972Z,22.13
2019-01-11T12:57:52.247Z,20.60
2019-01-11T13:00:21.639Z,19.17
2019-01-11T13:02:50.899Z,21.00
2019-01-11T13:05:21.639Z,20.20
2019-01-11T13:07:50.899Z,20.70
2019-01-11T13:10:20.943Z,24.20
2019-01-11T13:12:50.250Z,22.10
2019-01-11T13:15:21.691Z,22.17
2019-01-11T13:17:50.965Z,20.80
2019-01-11T13:20:21.392Z,21.43
2019-01-11T13:22:51.609Z,20.30
2019-01-11T13:25:20.874Z,20.57
2019-01-11T13:27:50.148Z,24.50
2019-01-11T13:30:19.625Z,22.80
2019-01-11T13:32:48.893Z,21.40
2019-01-11T13:35:18.148Z,24.83
2019-01-11T13:37:47.657Z,21.67
2019-01-11T13:40:19.781Z,24.60
2019-01-11T13:42:49.092Z,23.10
2019-01-11T13:45:18.549Z,23.50
2019-01-11T13:47:47.812Z,22.03
2019-01-11T13:50:32.061Z,21.17
2019-01-11T13:53:01.857Z,23.30
2019-01-11T13:55:31.113Z,21.30
2019-01-11T13:58:00.373Z,22.00
2019-01-11T14:00:29.661Z,22.77
2019-01-11T14:02:58.924Z,22.27
2019-01-11T14:05:28.211Z,20.80
2019-01-11T14:07:57.477Z,21.83
2019-01-11T14:10:26.753Z,20.90
2019-01-11T14:12:56.026Z,19.87
2019-01-11T14:15:25.305Z,19.97
2019-01-11T14:17:54.555Z,20.30
2019-01-11T14:20:23.864Z,20.23
2019-01-11T14:22:53.137Z,19.93
2019-01-11T14:25:22.420Z,18.97
2019-01-11T14:27:51.690Z,16.63
2019-01-11T14:30:21.353Z,17.70
2019-01-11T14:32:50.642Z,16.70
2019-01-11T14:35:19.917Z,16.47
2019-01-11T14:37:49.214Z,17.60
2019-01-11T14:40:18.476Z,15.67
2019-01-11T14:42:47.753Z,18.47
2019-01-11T14:45:17.534Z,15.00
2019-01-11T14:47:46.823Z,17.10
2019-01-11T14:50:17.851Z,18.87
2019-01-11T14:52:47.638Z,18.03
2019-01-11T14:55:17.257Z,17.90
2019-01-11T14:57:46.634Z,20.37
2019-01-11T15:00:20.373Z,19.63
2019-01-11T15:02:49.668Z,16.77
2019-01-11T15:05:19.297Z,22.07
2019-01-11T15:07:48.660Z,17.30
2019-01-11T15:10:18.044Z,20.57
2019-01-11T15:12:49.005Z,21.87
2019-01-11T15:15:19.185Z,19.77
2019-01-11T15:17:48.449Z,20.77
2019-01-11T15:20:19.171Z,21.40
2019-01-11T15:22:49.072Z,22.07
2019-01-11T15:25:18.499Z,21.40
2019-01-11T15:27:47.805Z,21.03
2019-01-11T15:30:19.298Z,20.10
2019-01-11T15:32:48.687Z,20.57
2019-01-11T15:35:18.748Z,23.27
2019-01-11T15:37:48.326Z,20.77
2019-01-11T15:40:23.385Z,21.77
2019-01-11T15:42:52.924Z,21.30
2019-01-11T15:45:22.185Z,22.77
2019-01-11T15:47:51.478Z,23.97
2019-01-11T15:50:49.498Z,21.30
2019-01-11T15:53:18.767Z,21.90
2019-01-11T15:55:49.380Z,19.73
2019-01-11T15:58:18.698Z,18.87
2019-01-11T16:00:48.999Z,19.63
2019-01-11T16:03:18.601Z,17.40
2019-01-11T16:05:47.869Z,18.27
2019-01-11T16:08:17.155Z,17.17
2019-01-11T16:11:17.021Z,16.10
2019-01-11T16:14:26.176Z,14.10
2019-01-11T16:17:05.075Z,15.00
2019-01-11T16:19:34.398Z,15.37
2019-01-11T16:22:03.660Z,14.77
2019-01-11T16:24:34.617Z,13.87
2019-01-11T16:27:03.894Z,15.47
2019-01-11T16:29:33.182Z,14.90
2019-01-11T16:32:02.542Z,15.60
2019-01-11T16:34:31.808Z,11.77
2019-01-11T16:37:01.159Z,13.63
2019-01-11T16:39:30.439Z,12.23
2019-01-11T16:41:59.987Z,15.37
2019-01-11T16:44:29.310Z,13.10
2019-01-11T16:46:58.625Z,15.30
2019-01-11T16:49:27.886Z,14.67
2019-01-11T16:51:57.225Z,13.00
2019-01-11T16:54:26.605Z,14.80
2019-01-11T16:56:55.875Z,15.30
2019-01-11T16:59:27.426Z,12.50
2019-01-11T17:01:56.702Z,14.50
2019-01-11T17:04:25.983Z,13.50
2019-01-11T17:06:55.286Z,13.27
2019-01-11T17:09:24.630Z,13.87
2019-01-11T17:11:53.953Z,12.87
2019-01-11T17:14:23.252Z,13.73
2019-01-11T17:16:52.520Z,12.13
2019-01-11T17:19:21.821Z,13.50
2019-01-11T17:21:51.098Z,13.13
2019-01-11T17:24:20.377Z,13.93
2019-01-11T17:26:49.635Z,11.90
2019-01-11T17:29:19.065Z,13.50
2019-01-11T17:31:48.319Z,13.10
2019-01-11T17:34:17.593Z,13.13
2019-01-11T17:36:46.853Z,12.60
2019-01-11T17:39:16.178Z,12.60
2019-01-11T17:41:45.431Z,12.30
2019-01-11T17:44:14.681Z,13.37
2019-01-11T17:46:43.954Z,12.00
2019-01-11T17:49:13.213Z,13.40
2019-01-11T17:51:42.498Z,12.80
2019-01-11T17:54:11.762Z,12.37
2019-01-11T17:56:41.026Z,12.17
2019-01-11T17:59:10.287Z,11.03
2019-01-11T18:01:39.582Z,12.40
2019-01-11T18:04:08.853Z,10.33
2019-01-11T18:06:38.213Z,13.67
2019-01-11T18:09:08.653Z,14.43
2019-01-11T18:11:37.930Z,13.53
2019-01-11T18:14:07.211Z,12.40
2019-01-11T18:16:36.518Z,12.00
2019-01-11T18:19:05.768Z,10.70
2019-01-11T18:21:35.068Z,10.90
2019-01-11T18:24:04.424Z,10.23
2019-01-11T18:26:33.683Z,11.27
2019-01-11T18:29:02.963Z,11.40
2019-01-11T18:31:32.302Z,10.23
2019-01-11T18:34:01.711Z,11.63
2019-01-11T18:36:31.058Z,12.43
2019-01-11T18:39:00.377Z,10.30
2019-01-11T18:41:29.741Z,12.43
2019-01-11T18:43:59.088Z,13.00
2019-01-11T18:46:28.393Z,13.90
2019-01-11T18:48:57.813Z,13.80
2019-01-11T18:51:27.382Z,13.07
2019-01-11T18:53:56.804Z,13.70
2019-01-11T18:56:26.153Z,11.70
2019-01-11T18:58:55.467Z,13.00
2019-01-11T19:01:24.762Z,13.03
2019-01-11T19:03:54.117Z,13.07
2019-01-11T19:06:23.425Z,14.27
2019-01-11T19:08:52.734Z,14.60
2019-01-11T19:11:22.003Z,15.00
2019-01-11T19:13:51.533Z,14.47
2019-01-11T19:16:20.801Z,15.07
2019-01-11T19:18:50.183Z,13.60
2019-01-11T19:21:19.435Z,16.03
2019-01-11T19:23:48.726Z,15.00
2019-01-11T19:26:17.999Z,14.43
2019-01-11T19:28:47.293Z,14.53
2019-01-11T19:31:16.568Z,15.30
2019-01-11T19:33:45.840Z,16.20
2019-01-11T19:36:15.083Z,15.90
2019-01-11T19:38:44.431Z,15.43
2019-01-11T19:41:13.699Z,14.27
2019-01-11T19:43:42.983Z,16.50
2019-01-11T19:46:12.275Z,14.97
2019-01-11T19:48:41.552Z,17.67
2019-01-11T19:51:10.821Z,15.70
2019-01-11T19:53:40.177Z,16.20
2019-01-11T19:56:09.479Z,15.70
2019-01-11T19:58:38.866Z,16.17
2019-01-11T20:01:08.634Z,15.03
2019-01-11T20:03:37.962Z,15.70
2019-01-11T20:06:07.339Z,14.53
2019-01-11T20:08:36.691Z,16.13
2019-01-11T20:11:05.956Z,15.43
2019-01-11T20:13:35.217Z,13.50
2019-01-11T20:16:04.611Z,13.90
2019-01-11T20:18:33.981Z,14.77
2019-01-11T20:21:03.255Z,15.90
2019-01-11T20:23:36.629Z,16.20
2019-01-11T20:26:03.607Z,14.30
2019-01-11T20:28:32.901Z,15.10
2019-01-11T20:31:02.364Z,13.17
2019-01-11T20:33:31.757Z,12.80
2019-01-11T20:36:01.630Z,13.67
2019-01-11T20:38:30.917Z,11.67
2019-01-11T20:41:00.180Z,12.67
2019-01-11T20:43:29.543Z,11.10
2019-01-11T20:46:03.202Z,13.03
2019-01-11T20:48:29.823Z,13.07
2019-01-11T20:50:59.166Z,12.50
2019-01-11T20:53:28.425Z,11.17
2019-01-11T20:55:57.785Z,12.43
2019-01-11T20:58:27.050Z,12.63
2019-01-11T21:00:56.436Z,13.10
2019-01-11T21:03:25.717Z,10.10
2019-01-11T21:05:54.985Z,12.10
2019-01-11T21:08:24.272Z,12.33
2019-01-11T21:10:53.546Z,12.50
2019-01-11T21:13:22.854Z,14.10
2019-01-11T21:15:52.117Z,13.27
2019-01-11T21:18:21.413Z,13.53
2019-01-11T21:20:50.673Z,14.00
2019-01-11T21:23:19.951Z,13.73
2019-01-11T21:25:49.224Z,14.07
2019-01-11T21:28:18.501Z,11.33
2019-01-11T21:30:47.761Z,12.60
2019-01-11T21:33:17.045Z,12.60
2019-01-11T21:35:46.353Z,12.13
2019-01-11T21:38:15.655Z,12.83
2019-01-11T21:40:44.917Z,12.23
2019-01-11T21:43:14.216Z,12.20
2019-01-11T21:45:43.476Z,13.13
2019-01-11T21:48:12.743Z,12.97
2019-01-11T21:50:42.019Z,12.90
2019-01-11T21:53:11.293Z,14.50
2019-01-11T21:55:40.663Z,14.30
2019-01-11T21:58:10.068Z,12.43
2019-01-11T22:00:44.348Z,14.40
2019-01-11T22:03:19.004Z,13.77
2019-01-11T22:05:48.300Z,14.80
2019-01-11T22:08:17.558Z,15.33
2019-01-11T22:10:46.834Z,15.40
2019-01-11T22:13:16.090Z,14.40
2019-01-11T22:15:45.369Z,15.47
2019-01-11T22:18:14.665Z,15.83
2019-01-11T22:20:43.942Z,14.03
2019-01-11T22:23:13.227Z,15.47
2019-01-11T22:25:42.493Z,15.30
2019-01-11T22:28:11.801Z,16.27
2019-01-11T22:30:41.173Z,17.10
2019-01-11T22:33:10.441Z,14.40
2019-01-11T22:35:39.796Z,16.20
2019-01-11T22:38:09.164Z,15.87
2019-01-11T22:40:38.488Z,15.57
2019-01-11T22:43:07.789Z,16.23
2019-01-11T22:45:37.156Z,16.50
2019-01-11T22:48:06.453Z,14.87
2019-01-11T22:50:35.741Z,15.20
2019-01-11T22:53:05.446Z,15.43
2019-01-11T22:55:34.802Z,14.07
2019-01-11T22:58:04.515Z,13.77
2019-01-11T23:01:10.754Z,14.50
2019-01-11T23:03:46.767Z,13.73
2019-01-11T23:06:24.034Z,12.77
2019-01-11T23:08:54.400Z,14.07
2019-01-11T23:11:47.768Z,13.83
2019-01-11T23:14:17.079Z,12.70
2019-01-11T23:16:57.577Z,12.13
2019-01-11T23:19:26.939Z,11.33
2019-01-11T23:21:56.204Z,13.43
2019-01-11T23:24:25.623Z,11.37
2019-01-11T23:26:55.588Z,9.83
2019-01-11T23:29:25.128Z,10.20
2019-01-11T23:31:54.437Z,11.97
2019-01-11T23:34:23.691Z,12.20
2019-01-11T23:36:52.982Z,10.90
2019-01-11T23:39:22.236Z,10.27
2019-01-11T23:41:51.516Z,10.00
2019-01-11T23:44:20.789Z,11.30
2019-01-11T23:46:50.064Z,11.20
2019-01-11T23:49:19.323Z,9.90
2019-01-11T23:51:48.601Z,9.00
2019-01-11T23:54:24.339Z,9.40
2019-01-11T23:56:48.880Z,9.47
2019-01-11T23:59:18.145Z,10.40
